Weather at Dillon's Bay Airport

Public forecast

Using degrees Celsius for public forecast. Weather courtesy of forecast.io.

Closest aviation weather report (METAR) to Dillon's Bay Airport

Closest report is Tanna Airport, 43.1 nm (79.8 km) SSE. Retrieved 2022/06/24 21:00 UTC (35 minutes ago):

NVVW 242100Z 00000KT 9999 SCT020 OVC040 24/23 Q1016

Closest aviation forecast (TAF) to Dillon's Bay Airport

Closest forecast is Tanna Airport, 43.1 nm (79.8 km) SSE. Retrieved 2022/06/24 18:00 UTC (4 hours ago):

TAF NVVW 241700Z 2418/2518 VRB02KT 9999 SCT020 OVC110 INTER 2418/2424 9000 SHRA FEW010 BKN018